sensor_id;sensor_type;location;lat;lon;timestamp;pressure;altitude;pressure_sealevel;temperature;humidity
49723;BME280;43484;43.608;1.458;2023-04-27T00:01:08;99253.56;;;16.33;100.00
49723;BME280;43484;43.608;1.458;2023-04-27T00:03:37;99254.44;;;16.27;100.00
49723;BME280;43484;43.608;1.458;2023-04-27T00:06:04;99248.44;;;16.20;100.00
49723;BME280;43484;43.608;1.458;2023-04-27T00:08:30;99249.28;;;16.19;100.00
49723;BME280;43484;43.608;1.458;2023-04-27T00:10:57;99248.41;;;16.16;100.00
49723;BME280;43484;43.608;1.458;2023-04-27T00:13:23;99242.41;;;16.11;100.00
49723;BME280;43484;43.608;1.458;2023-04-27T00:15:50;99253.63;;;16.08;100.00
49723;BME280;43484;43.608;1.458;2023-04-27T00:18:17;99246.75;;;16.09;100.00
49723;BME280;43484;43.608;1.458;2023-04-27T00:20:44;99247.59;;;16.06;100.00
49723;BME280;43484;43.608;1.458;2023-04-27T00:23:10;99234.66;;;16.06;100.00
49723;BME280;43484;43.608;1.458;2023-04-27T00:25:37;99230.38;;;16.05;100.00
49723;BME280;43484;43.608;1.458;2023-04-27T00:28:04;99220.91;;;16.07;100.00
49723;BME280;43484;43.608;1.458;2023-04-27T00:30:30;99217.47;;;15.99;100.00
49723;BME280;43484;43.608;1.458;2023-04-27T00:32:57;99220.03;;;16.01;100.00
49723;BME280;43484;43.608;1.458;2023-04-27T00:35:24;99220.88;;;16.04;100.00
49723;BME280;43484;43.608;1.458;2023-04-27T00:37:52;99215.75;;;16.07;100.00
49723;BME280;43484;43.608;1.458;2023-04-27T00:40:19;99214.88;;;16.07;100.00
49723;BME280;43484;43.608;1.458;2023-04-27T00:42:46;99210.56;;;16.06;100.00
49723;BME280;43484;43.608;1.458;2023-04-27T00:45:13;99219.19;;;16.05;100.00
49723;BME280;43484;43.608;1.458;2023-04-27T00:47:40;99209.69;;;16.01;100.00
49723;BME280;43484;43.608;1.458;2023-04-27T00:50:08;99214.88;;;15.98;100.00
49723;BME280;43484;43.608;1.458;2023-04-27T00:52:36;99220.91;;;15.97;100.00
49723;BME280;43484;43.608;1.458;2023-04-27T00:55:03;99219.19;;;16.00;100.00
49723;BME280;43484;43.608;1.458;2023-04-27T00:57:32;99225.22;;;15.99;100.00
49723;BME280;43484;43.608;1.458;2023-04-27T00:59:59;99217.47;;;15.96;100.00
49723;BME280;43484;43.608;1.458;2023-04-27T01:02:25;99215.75;;;15.97;100.00
49723;BME280;43484;43.608;1.458;2023-04-27T01:04:54;99220.06;;;15.96;100.00
49723;BME280;43484;43.608;1.458;2023-04-27T01:07:24;99225.22;;;15.93;100.00
49723;BME280;43484;43.608;1.458;2023-04-27T01:09:52;99230.41;;;15.90;100.00
49723;BME280;43484;43.608;1.458;2023-04-27T01:12:18;99232.09;;;15.94;100.00
49723;BME280;43484;43.608;1.458;2023-04-27T01:14:45;99231.25;;;15.97;100.00
49723;BME280;43484;43.608;1.458;2023-04-27T01:17:11;99236.44;;;15.95;100.00
49723;BME280;43484;43.608;1.458;2023-04-27T01:19:40;99238.13;;;15.98;100.00
49723;BME280;43484;43.608;1.458;2023-04-27T01:22:06;99226.09;;;15.95;100.00
49723;BME280;43484;43.608;1.458;2023-04-27T01:24:33;99232.13;;;15.97;100.00
49723;BME280;43484;43.608;1.458;2023-04-27T01:26:59;99225.22;;;15.96;100.00
49723;BME280;43484;43.608;1.458;2023-04-27T01:29:27;99218.34;;;15.97;100.00
49723;BME280;43484;43.608;1.458;2023-04-27T01:31:53;99230.41;;;15.95;100.00
49723;BME280;43484;43.608;1.458;2023-04-27T01:34:20;99230.38;;;15.98;100.00
49723;BME280;43484;43.608;1.458;2023-04-27T01:36:47;99224.38;;;15.97;100.00
49723;BME280;43484;43.608;1.458;2023-04-27T01:39:13;99213.19;;;15.97;100.00
49723;BME280;43484;43.608;1.458;2023-04-27T01:41:40;99216.59;;;15.96;100.00
49723;BME280;43484;43.608;1.458;2023-04-27T01:44:07;99227.81;;;15.96;100.00
49723;BME280;43484;43.608;1.458;2023-04-27T01:46:34;99229.53;;;15.91;100.00
49723;BME280;43484;43.608;1.458;2023-04-27T01:49:00;99230.38;;;15.96;100.00
49723;BME280;43484;43.608;1.458;2023-04-27T01:51:27;99227.81;;;15.95;100.00
49723;BME280;43484;43.608;1.458;2023-04-27T01:53:53;99229.53;;;15.97;100.00
49723;BME280;43484;43.608;1.458;2023-04-27T01:56:20;99230.38;;;16.01;100.00
49723;BME280;43484;43.608;1.458;2023-04-27T01:58:47;99226.94;;;15.96;100.00
49723;BME280;43484;43.608;1.458;2023-04-27T02:01:13;99218.31;;;16.00;100.00
49723;BME280;43484;43.608;1.458;2023-04-27T02:03:40;99216.63;;;15.99;100.00
49723;BME280;43484;43.608;1.458;2023-04-27T02:06:07;99214.03;;;16.00;100.00
49723;BME280;43484;43.608;1.458;2023-04-27T02:08:34;99208.00;;;15.98;100.00
49723;BME280;43484;43.608;1.458;2023-04-27T02:11:01;99205.41;;;15.97;100.00
49723;BME280;43484;43.608;1.458;2023-04-27T02:13:28;99203.69;;;15.93;100.00
49723;BME280;43484;43.608;1.458;2023-04-27T02:15:54;99201.09;;;15.94;100.00
49723;BME280;43484;43.608;1.458;2023-04-27T02:18:21;99206.28;;;15.91;100.00
49723;BME280;43484;43.608;1.458;2023-04-27T02:20:48;99201.97;;;15.96;100.00
49723;BME280;43484;43.608;1.458;2023-04-27T02:23:15;99204.56;;;15.93;100.00
49723;BME280;43484;43.608;1.458;2023-04-27T02:25:41;99205.44;;;15.92;100.00
49723;BME280;43484;43.608;1.458;2023-04-27T02:28:12;99203.69;;;15.93;100.00
49723;BME280;43484;43.608;1.458;2023-04-27T02:30:39;99204.56;;;15.93;100.00
49723;BME280;43484;43.608;1.458;2023-04-27T02:33:06;99198.53;;;15.94;100.00
49723;BME280;43484;43.608;1.458;2023-04-27T02:35:33;99201.97;;;15.96;100.00
49723;BME280;43484;43.608;1.458;2023-04-27T02:37:59;99201.09;;;15.94;100.00
49723;BME280;43484;43.608;1.458;2023-04-27T02:40:26;99196.81;;;15.96;100.00
49723;BME280;43484;43.608;1.458;2023-04-27T02:42:53;99195.94;;;15.93;100.00
49723;BME280;43484;43.608;1.458;2023-04-27T02:45:19;99187.34;;;15.95;100.00
49723;BME280;43484;43.608;1.458;2023-04-27T02:47:46;99185.63;;;15.93;100.00
49723;BME280;43484;43.608;1.458;2023-04-27T02:50:12;99190.78;;;15.90;100.00
49723;BME280;43484;43.608;1.458;2023-04-27T02:52:39;99195.09;;;15.89;100.00
49723;BME280;43484;43.608;1.458;2023-04-27T02:55:06;99200.28;;;15.86;100.00
49723;BME280;43484;43.608;1.458;2023-04-27T02:57:32;99198.56;;;15.84;100.00
49723;BME280;43484;43.608;1.458;2023-04-27T02:59:59;99194.25;;;15.83;100.00
49723;BME280;43484;43.608;1.458;2023-04-27T03:02:25;99204.56;;;15.83;100.00
49723;BME280;43484;43.608;1.458;2023-04-27T03:04:52;99200.28;;;15.82;100.00
49723;BME280;43484;43.608;1.458;2023-04-27T03:07:22;99205.47;;;15.80;100.00
49723;BME280;43484;43.608;1.458;2023-04-27T03:09:49;99206.31;;;15.82;100.00
49723;BME280;43484;43.608;1.458;2023-04-27T03:12:15;99201.13;;;15.78;100.00
49723;BME280;43484;43.608;1.458;2023-04-27T03:14:42;99209.75;;;15.80;100.00
49723;BME280;43484;43.608;1.458;2023-04-27T03:17:09;99206.31;;;15.78;100.00
49723;BME280;43484;43.608;1.458;2023-04-27T03:19:35;99192.53;;;15.76;100.00
49723;BME280;43484;43.608;1.458;2023-04-27T03:22:02;99197.72;;;15.77;100.00
49723;BME280;43484;43.608;1.458;2023-04-27T03:24:29;99199.44;;;15.77;100.00
49723;BME280;43484;43.608;1.458;2023-04-27T03:26:56;99190.81;;;15.73;100.00
49723;BME280;43484;43.608;1.458;2023-04-27T03:29:22;99194.28;;;15.75;100.00
49723;BME280;43484;43.608;1.458;2023-04-27T03:31:49;99184.78;;;15.73;100.00
49723;BME280;43484;43.608;1.458;2023-04-27T03:34:16;99180.50;;;15.70;100.00
49723;BME280;43484;43.608;1.458;2023-04-27T03:36:42;99180.50;;;15.72;100.00
49723;BME280;43484;43.608;1.458;2023-04-27T03:39:09;99185.69;;;15.69;100.00
49723;BME280;43484;43.608;1.458;2023-04-27T03:41:36;99192.53;;;15.71;100.00
49723;BME280;43484;43.608;1.458;2023-04-27T03:44:02;99193.41;;;15.73;100.00
49723;BME280;43484;43.608;1.458;2023-04-27T03:46:29;99199.44;;;15.74;100.00
49723;BME280;43484;43.608;1.458;2023-04-27T03:48:56;99196.84;;;15.75;100.00
49723;BME280;43484;43.608;1.458;2023-04-27T03:51:23;99202.88;;;15.74;100.00
49723;BME280;43484;43.608;1.458;2023-04-27T03:53:50;99196.88;;;15.74;100.00
49723;BME280;43484;43.608;1.458;2023-04-27T03:56:16;99196.00;;;15.70;100.00
49723;BME280;43484;43.608;1.458;2023-04-27T03:58:43;99191.69;;;15.69;100.00
49723;BME280;43484;43.608;1.458;2023-04-27T04:01:09;99183.94;;;15.74;100.00
49723;BME280;43484;43.608;1.458;2023-04-27T04:03:36;99195.13;;;15.71;100.00
49723;BME280;43484;43.608;1.458;2023-04-27T04:06:03;99189.97;;;15.68;100.00
49723;BME280;43484;43.608;1.458;2023-04-27T04:08:30;99188.28;;;15.67;100.00
49723;BME280;43484;43.608;1.458;2023-04-27T04:10:58;99186.53;;;15.69;100.00
49723;BME280;43484;43.608;1.458;2023-04-27T04:13:25;99178.78;;;15.65;100.00
49723;BME280;43484;43.608;1.458;2023-04-27T04:16:05;99162.44;;;15.64;100.00
49723;BME280;43484;43.608;1.458;2023-04-27T04:18:33;99158.13;;;15.63;100.00
49723;BME280;43484;43.608;1.458;2023-04-27T04:20:59;99162.44;;;15.64;100.00
49723;BME280;43484;43.608;1.458;2023-04-27T04:23:26;99173.63;;;15.63;100.00
49723;BME280;43484;43.608;1.458;2023-04-27T04:25:53;99181.34;;;15.68;100.00
49723;BME280;43484;43.608;1.458;2023-04-27T04:28:22;99173.63;;;15.65;100.00
49723;BME280;43484;43.608;1.458;2023-04-27T04:30:49;99178.78;;;15.63;100.00
49723;BME280;43484;43.608;1.458;2023-04-27T04:33:16;99182.25;;;15.67;100.00
49723;BME280;43484;43.608;1.458;2023-04-27T04:35:43;99183.06;;;15.66;100.00
49723;BME280;43484;43.608;1.458;2023-04-27T04:38:10;99190.81;;;15.66;100.00
49723;BME280;43484;43.608;1.458;2023-04-27T04:40:40;99183.09;;;15.61;100.00
49723;BME280;43484;43.608;1.458;2023-04-27T04:43:10;99183.97;;;15.60;100.00
49723;BME280;43484;43.608;1.458;2023-04-27T04:45:37;99178.78;;;15.63;100.00
49723;BME280;43484;43.608;1.458;2023-04-27T04:48:04;99188.25;;;15.64;100.00
49723;BME280;43484;43.608;1.458;2023-04-27T04:50:31;99203.75;;;15.61;100.00
49723;BME280;43484;43.608;1.458;2023-04-27T04:52:57;99205.47;;;15.61;100.00
49723;BME280;43484;43.608;1.458;2023-04-27T04:55:27;99201.19;;;15.52;100.00
49723;BME280;43484;43.608;1.458;2023-04-27T04:57:53;99196.03;;;15.55;100.00
49723;BME280;43484;43.608;1.458;2023-04-27T05:00:20;99198.59;;;15.58;100.00
49723;BME280;43484;43.608;1.458;2023-04-27T05:02:47;99203.75;;;15.60;100.00
49723;BME280;43484;43.608;1.458;2023-04-27T05:05:14;99209.78;;;15.57;100.00
49723;BME280;43484;43.608;1.458;2023-04-27T05:07:41;99220.13;;;15.59;100.00
49723;BME280;43484;43.608;1.458;2023-04-27T05:10:08;99215.81;;;15.62;100.00
49723;BME280;43484;43.608;1.458;2023-04-27T05:12:35;99212.38;;;15.62;100.00
49723;BME280;43484;43.608;1.458;2023-04-27T05:15:01;99202.03;;;15.54;100.00
49723;BME280;43484;43.608;1.458;2023-04-27T05:17:28;99199.44;;;15.54;100.00
49723;BME280;43484;43.608;1.458;2023-04-27T05:19:55;99202.03;;;15.54;100.00
49723;BME280;43484;43.608;1.458;2023-04-27T05:22:22;99191.72;;;15.59;100.00
49723;BME280;43484;43.608;1.458;2023-04-27T05:24:48;99189.13;;;15.56;100.00
49723;BME280;43484;43.608;1.458;2023-04-27T05:27:15;99179.66;;;15.55;100.00
49723;BME280;43484;43.608;1.458;2023-04-27T05:29:42;99194.31;;;15.59;100.00
49723;BME280;43484;43.608;1.458;2023-04-27T05:32:09;99190.00;;;15.62;100.00
49723;BME280;43484;43.608;1.458;2023-04-27T05:34:36;99198.59;;;15.63;100.00
49723;BME280;43484;43.608;1.458;2023-04-27T05:37:02;99199.47;;;15.62;100.00
49723;BME280;43484;43.608;1.458;2023-04-27T05:39:29;99198.59;;;15.61;100.00
49723;BME280;43484;43.608;1.458;2023-04-27T05:41:55;99205.50;;;15.62;100.00
49723;BME280;43484;43.608;1.458;2023-04-27T05:44:22;99192.56;;;15.62;100.00
49723;BME280;43484;43.608;1.458;2023-04-27T05:46:54;99196.00;;;15.66;100.00
49723;BME280;43484;43.608;1.458;2023-04-27T05:49:22;99204.59;;;15.69;100.00
49723;BME280;43484;43.608;1.458;2023-04-27T05:51:48;99199.44;;;15.72;100.00
49723;BME280;43484;43.608;1.458;2023-04-27T05:54:15;99202.00;;;15.78;100.00
49723;BME280;43484;43.608;1.458;2023-04-27T05:56:42;99208.03;;;15.71;100.00
49723;BME280;43484;43.608;1.458;2023-04-27T05:59:08;99213.19;;;15.76;100.00
49723;BME280;43484;43.608;1.458;2023-04-27T06:01:35;99203.72;;;15.81;100.00
49723;BME280;43484;43.608;1.458;2023-04-27T06:04:02;99199.41;;;15.83;100.00
49723;BME280;43484;43.608;1.458;2023-04-27T06:06:33;99202.84;;;15.86;100.00
49723;BME280;43484;43.608;1.458;2023-04-27T06:09:01;99198.53;;;15.91;100.00
49723;BME280;43484;43.608;1.458;2023-04-27T06:11:27;99188.19;;;15.94;100.00
49723;BME280;43484;43.608;1.458;2023-04-27T06:13:54;99187.31;;;16.00;100.00
49723;BME280;43484;43.608;1.458;2023-04-27T06:16:20;99189.94;;;15.95;100.00
49723;BME280;43484;43.608;1.458;2023-04-27T06:18:49;99189.94;;;15.95;100.00
49723;BME280;43484;43.608;1.458;2023-04-27T06:21:16;99195.94;;;16.00;100.00
49723;BME280;43484;43.608;1.458;2023-04-27T06:23:43;99185.63;;;15.97;100.00
49723;BME280;43484;43.608;1.458;2023-04-27T06:26:09;99191.63;;;16.01;100.00
49723;BME280;43484;43.608;1.458;2023-04-27T06:28:36;99191.63;;;15.99;100.00
49723;BME280;43484;43.608;1.458;2023-04-27T06:31:04;99193.31;;;16.08;100.00
49723;BME280;43484;43.608;1.458;2023-04-27T06:33:32;99188.16;;;16.06;100.00
49723;BME280;43484;43.608;1.458;2023-04-27T06:35:59;99187.28;;;16.06;100.00
49723;BME280;43484;43.608;1.458;2023-04-27T06:38:26;99176.97;;;16.03;100.00
49723;BME280;43484;43.608;1.458;2023-04-27T06:40:53;99186.44;;;16.08;100.00
49723;BME280;43484;43.608;1.458;2023-04-27T06:43:20;99184.72;;;16.12;100.00
49723;BME280;43484;43.608;1.458;2023-04-27T06:45:47;99187.25;;;16.21;100.00
49723;BME280;43484;43.608;1.458;2023-04-27T06:48:13;99188.13;;;16.21;100.00
49723;BME280;43484;43.608;1.458;2023-04-27T06:50:40;99183.78;;;16.29;100.00
49723;BME280;43484;43.608;1.458;2023-04-27T06:53:07;99181.16;;;16.39;100.00
49723;BME280;43484;43.608;1.458;2023-04-27T06:55:34;99171.69;;;16.47;100.00
49723;BME280;43484;43.608;1.458;2023-04-27T06:58:01;99168.22;;;16.49;100.00
49723;BME280;43484;43.608;1.458;2023-04-27T07:00:29;99163.91;;;16.53;100.00
49723;BME280;43484;43.608;1.458;2023-04-27T07:02:56;99162.16;;;16.58;100.00
49723;BME280;43484;43.608;1.458;2023-04-27T07:05:22;99157.81;;;16.63;100.00
49723;BME280;43484;43.608;1.458;2023-04-27T07:07:49;99162.94;;;16.69;100.00
49723;BME280;43484;43.608;1.458;2023-04-27T07:10:16;99181.91;;;16.72;100.00
49723;BME280;43484;43.608;1.458;2023-04-27T07:12:42;99200.81;;;16.79;100.00
49723;BME280;43484;43.608;1.458;2023-04-27T07:15:09;99216.31;;;16.82;100.00
49723;BME280;43484;43.608;1.458;2023-04-27T07:17:36;99231.81;;;16.88;100.00
49723;BME280;43484;43.608;1.458;2023-04-27T07:20:05;99250.75;;;16.97;100.00
49723;BME280;43484;43.608;1.458;2023-04-27T07:22:32;99280.00;;;17.05;100.00
49723;BME280;43484;43.608;1.458;2023-04-27T07:24:59;99296.38;;;17.12;100.00
49723;BME280;43484;43.608;1.458;2023-04-27T07:27:25;99320.50;;;17.15;100.00
49723;BME280;43484;43.608;1.458;2023-04-27T07:29:52;99321.31;;;17.23;100.00
49723;BME280;43484;43.608;1.458;2023-04-27T07:32:20;99329.91;;;17.31;100.00
49723;BME280;43484;43.608;1.458;2023-04-27T07:34:47;99335.94;;;17.35;100.00
49723;BME280;43484;43.608;1.458;2023-04-27T07:37:19;99344.56;;;17.34;100.00
49723;BME280;43484;43.608;1.458;2023-04-27T07:39:47;99364.38;;;17.36;100.00
49723;BME280;43484;43.608;1.458;2023-04-27T07:42:14;99377.31;;;17.42;100.00
49723;BME280;43484;43.608;1.458;2023-04-27T07:44:41;99408.38;;;17.44;100.00
49723;BME280;43484;43.608;1.458;2023-04-27T07:47:08;99408.38;;;17.50;100.00
49723;BME280;43484;43.608;1.458;2023-04-27T07:49:35;99407.47;;;17.60;100.00
49723;BME280;43484;43.608;1.458;2023-04-27T07:52:03;99407.47;;;17.65;100.00
49723;BME280;43484;43.608;1.458;2023-04-27T07:54:30;99409.97;;;17.75;100.00
49723;BME280;43484;43.608;1.458;2023-04-27T07:56:56;99417.63;;;17.90;100.00
49723;BME280;43484;43.608;1.458;2023-04-27T07:59:23;99417.56;;;18.01;100.00
49723;BME280;43484;43.608;1.458;2023-04-27T08:01:50;99455.56;;;18.08;100.00
49723;BME280;43484;43.608;1.458;2023-04-27T08:04:17;99486.59;;;18.15;100.00
49723;BME280;43484;43.608;1.458;2023-04-27T08:06:44;99508.16;;;18.25;100.00
49723;BME280;43484;43.608;1.458;2023-04-27T08:09:12;99550.47;;;18.33;100.00
49723;BME280;43484;43.608;1.458;2023-04-27T08:11:39;99579.88;;;18.32;100.00
49723;BME280;43484;43.608;1.458;2023-04-27T08:14:06;99584.19;;;18.31;100.00
49723;BME280;43484;43.608;1.458;2023-04-27T08:16:42;99598.00;;;18.35;100.00
49723;BME280;43484;43.608;1.458;2023-04-27T08:19:09;99622.19;;;18.37;100.00
49723;BME280;43484;43.608;1.458;2023-04-27T08:21:37;99625.66;;;18.34;100.00
49723;BME280;43484;43.608;1.458;2023-04-27T08:24:05;99613.59;;;18.27;100.00
49723;BME280;43484;43.608;1.458;2023-04-27T08:26:32;99598.91;;;18.28;100.00
49723;BME280;43484;43.608;1.458;2023-04-27T08:29:01;99605.81;;;18.26;100.00
49723;BME280;43484;43.608;1.458;2023-04-27T08:31:45;99595.41;;;18.29;100.00
49723;BME280;43484;43.608;1.458;2023-04-27T08:34:12;99605.78;;;18.29;100.00
49723;BME280;43484;43.608;1.458;2023-04-27T08:36:39;99604.03;;;18.38;100.00
49723;BME280;43484;43.608;1.458;2023-04-27T08:39:05;99603.16;;;18.48;100.00
49723;BME280;43484;43.608;1.458;2023-04-27T08:41:33;99596.22;;;18.47;100.00
49723;BME280;43484;43.608;1.458;2023-04-27T08:43:59;99591.84;;;18.58;100.00
49723;BME280;43484;43.608;1.458;2023-04-27T08:46:26;99612.66;;;18.48;100.00
49723;BME280;43484;43.608;1.458;2023-04-27T08:48:53;99612.69;;;18.43;100.00
49723;BME280;43484;43.608;1.458;2023-04-27T08:51:20;99620.47;;;18.43;100.00
49723;BME280;43484;43.608;1.458;2023-04-27T08:53:50;99629.91;;;18.55;100.00
49723;BME280;43484;43.608;1.458;2023-04-27T08:56:18;99638.50;;;18.61;100.00
49723;BME280;43484;43.608;1.458;2023-04-27T08:58:45;99649.66;;;18.75;100.00
49723;BME280;43484;43.608;1.458;2023-04-27T09:01:12;99661.75;;;18.80;100.00
49723;BME280;43484;43.608;1.458;2023-04-27T09:03:38;99684.06;;;19.05;100.00
49723;BME280;43484;43.608;1.458;2023-04-27T09:06:05;99700.41;;;19.22;100.00
49723;BME280;43484;43.608;1.458;2023-04-27T09:08:47;99714.97;;;19.41;100.00
49723;BME280;43484;43.608;1.458;2023-04-27T09:11:15;99723.56;;;19.52;100.00
49723;BME280;43484;43.608;1.458;2023-04-27T09:13:43;99730.41;;;19.62;100.00
49723;BME280;43484;43.608;1.458;2023-04-27T09:16:13;99738.13;;;19.74;100.00
49723;BME280;43484;43.608;1.458;2023-04-27T09:18:42;99742.41;;;19.75;100.00
49723;BME280;43484;43.608;1.458;2023-04-27T09:21:09;99750.28;;;19.66;100.00
49723;BME280;43484;43.608;1.458;2023-04-27T09:23:37;99751.03;;;19.80;100.00
49723;BME280;43484;43.608;1.458;2023-04-27T09:26:05;99744.03;;;19.88;100.00
49723;BME280;43484;43.608;1.458;2023-04-27T09:28:38;99745.75;;;19.92;100.00
49723;BME280;43484;43.608;1.458;2023-04-27T09:31:05;99756.03;;;20.03;100.00
49723;BME280;43484;43.608;1.458;2023-04-27T09:33:35;99756.03;;;20.04;100.00
49723;BME280;43484;43.608;1.458;2023-04-27T09:36:05;99744.69;;;20.08;100.00
49723;BME280;43484;43.608;1.458;2023-04-27T09:38:32;99748.19;;;20.06;100.00
49723;BME280;43484;43.608;1.458;2023-04-27T09:40:59;99740.38;;;20.09;100.00
49723;BME280;43484;43.608;1.458;2023-04-27T09:43:26;99731.66;;;20.10;100.00
49723;BME280;43484;43.608;1.458;2023-04-27T09:45:54;99723.97;;;20.01;100.00
49723;BME280;43484;43.608;1.458;2023-04-27T09:48:23;99719.63;;;20.04;100.00
49723;BME280;43484;43.608;1.458;2023-04-27T09:50:51;99713.66;;;19.93;100.00
49723;BME280;43484;43.608;1.458;2023-04-27T09:56:30;99719.63;;;20.04;100.00
49723;BME280;43484;43.608;1.458;2023-04-27T10:01:45;99712.56;;;20.14;100.00
49723;BME280;43484;43.608;1.458;2023-04-27T10:07:11;99715.19;;;20.15;100.00
49723;BME280;43484;43.608;1.458;2023-04-27T10:09:42;99717.00;;;20.06;100.00
49723;BME280;43484;43.608;1.458;2023-04-27T10:12:21;99715.19;;;20.12;100.00
49723;BME280;43484;43.608;1.458;2023-04-27T10:14:53;99708.25;;;20.11;100.00
49723;BME280;43484;43.608;1.458;2023-04-27T10:17:31;99707.38;;;20.15;100.00
49723;BME280;43484;43.608;1.458;2023-04-27T10:20:06;99714.28;;;20.15;100.00
49723;BME280;43484;43.608;1.458;2023-04-27T10:28:01;99700.84;;;20.54;100.00
49723;BME280;43484;43.608;1.458;2023-04-27T10:30:32;99693.91;;;20.53;100.00
49723;BME280;43484;43.608;1.458;2023-04-27T10:33:05;99693.72;;;20.68;100.00
49723;BME280;43484;43.608;1.458;2023-04-27T10:35:40;99690.13;;;20.78;100.00
49723;BME280;43484;43.608;1.458;2023-04-27T10:38:09;99685.59;;;20.89;100.00
49723;BME280;43484;43.608;1.458;2023-04-27T10:40:37;99683.13;;;20.80;100.00
49723;BME280;43484;43.608;1.458;2023-04-27T10:43:11;99692.81;;;20.69;100.00
49723;BME280;43484;43.608;1.458;2023-04-27T10:45:38;99698.75;;;20.81;100.00
49723;BME280;43484;43.608;1.458;2023-04-27T10:48:05;99702.34;;;20.73;100.00
49723;BME280;43484;43.608;1.458;2023-04-27T10:50:33;99692.59;;;20.85;100.00
49723;BME280;43484;43.608;1.458;2023-04-27T10:53:02;99693.31;;;20.95;100.00
49723;BME280;43484;43.608;1.458;2023-04-27T10:55:30;99701.16;;;20.92;100.00
49723;BME280;43484;43.608;1.458;2023-04-27T10:57:57;99696.50;;;21.17;100.00
49723;BME280;43484;43.608;1.458;2023-04-27T11:00:29;99706.81;;;21.23;100.00
49723;BME280;43484;43.608;1.458;2023-04-27T11:03:08;99703.50;;;21.14;100.00
49723;BME280;43484;43.608;1.458;2023-04-27T11:05:35;99704.25;;;21.21;100.00
49723;BME280;43484;43.608;1.458;2023-04-27T11:08:09;99696.19;;;21.36;100.00
49723;BME280;43484;43.608;1.458;2023-04-27T11:10:42;99695.06;;;21.51;100.00
49723;BME280;43484;43.608;1.458;2023-04-27T11:13:11;99693.41;;;21.47;100.00
49723;BME280;43484;43.608;1.458;2023-04-27T11:18:17;99694.63;;;21.78;100.00
49723;BME280;43484;43.608;1.458;2023-04-27T11:20:49;99703.31;;;21.78;100.00
49723;BME280;43484;43.608;1.458;2023-04-27T11:23:27;99699.22;;;21.62;100.00
49723;BME280;43484;43.608;1.458;2023-04-27T11:25:55;99688.97;;;21.50;100.00
49723;BME280;43484;43.608;1.458;2023-04-27T11:28:22;99683.19;;;21.85;100.00
49723;BME280;43484;43.608;1.458;2023-04-27T11:30:59;99677.66;;;22.01;100.00
49723;BME280;43484;43.608;1.458;2023-04-27T11:33:26;99676.72;;;22.04;100.00
49723;BME280;43484;43.608;1.458;2023-04-27T11:35:53;99669.13;;;21.93;100.00
49723;BME280;43484;43.608;1.458;2023-04-27T11:38:20;99670.88;;;21.93;100.00
49723;BME280;43484;43.608;1.458;2023-04-27T11:41:04;99684.56;;;22.04;100.00
49723;BME280;43484;43.608;1.458;2023-04-27T11:43:31;99678.16;;;22.20;100.00
49723;BME280;43484;43.608;1.458;2023-04-27T11:46:03;99685.00;;;22.27;100.00
49723;BME280;43484;43.608;1.458;2023-04-27T11:48:29;99683.16;;;22.30;100.00
49723;BME280;43484;43.608;1.458;2023-04-27T11:50:57;99675.19;;;22.38;100.00
49723;BME280;43484;43.608;1.458;2023-04-27T11:56:02;99670.31;;;22.21;100.00
49723;BME280;43484;43.608;1.458;2023-04-27T11:58:34;99670.50;;;22.11;100.00
49723;BME280;43484;43.608;1.458;2023-04-27T12:01:05;99664.47;;;22.09;100.00
49723;BME280;43484;43.608;1.458;2023-04-27T12:03:32;99656.47;;;22.18;100.00
49723;BME280;43484;43.608;1.458;2023-04-27T12:05:59;99658.75;;;22.33;100.00
49723;BME280;43484;43.608;1.458;2023-04-27T12:08:45;99652.38;;;22.46;100.00
49723;BME280;43484;43.608;1.458;2023-04-27T12:11:12;99664.97;;;22.26;100.00
49723;BME280;43484;43.608;1.458;2023-04-27T12:13:39;99664.03;;;22.30;100.00
49723;BME280;43484;43.608;1.458;2023-04-27T12:16:06;99667.50;;;22.32;100.00
49723;BME280;43484;43.608;1.458;2023-04-27T12:18:32;99663.19;;;22.29;100.00
49723;BME280;43484;43.608;1.458;2023-04-27T12:20:59;99663.44;;;22.60;100.00
49723;BME280;43484;43.608;1.458;2023-04-27T12:23:28;99662.50;;;22.63;100.00
49723;BME280;43484;43.608;1.458;2023-04-27T12:25:55;99670.28;;;22.64;100.00
49723;BME280;43484;43.608;1.458;2023-04-27T12:28:21;99666.88;;;22.62;100.00
49723;BME280;43484;43.608;1.458;2023-04-27T12:30:48;99666.91;;;22.59;100.00
49723;BME280;43484;43.608;1.458;2023-04-27T12:33:15;99668.38;;;22.72;100.00
49723;BME280;43484;43.608;1.458;2023-04-27T12:35:42;99661.53;;;22.67;100.00
49723;BME280;43484;43.608;1.458;2023-04-27T12:38:09;99668.81;;;22.51;100.00
49723;BME280;43484;43.608;1.458;2023-04-27T12:40:35;99667.16;;;22.47;100.00
49723;BME280;43484;43.608;1.458;2023-04-27T12:43:02;99664.88;;;22.73;100.00
49723;BME280;43484;43.608;1.458;2023-04-27T12:45:29;99654.50;;;22.70;100.00
49723;BME280;43484;43.608;1.458;2023-04-27T12:47:56;99651.66;;;22.79;100.00
49723;BME280;43484;43.608;1.458;2023-04-27T12:50:25;99660.13;;;22.90;100.00
49723;BME280;43484;43.608;1.458;2023-04-27T12:52:52;99654.81;;;22.93;100.00
49723;BME280;43484;43.608;1.458;2023-04-27T12:55:19;99649.19;;;23.10;100.00
49723;BME280;43484;43.608;1.458;2023-04-27T12:57:58;99651.81;;;23.10;100.00
49723;BME280;43484;43.608;1.458;2023-04-27T13:00:25;99649.59;;;22.93;100.00
49723;BME280;43484;43.608;1.458;2023-04-27T13:02:52;99650.91;;;23.11;100.00
49723;BME280;43484;43.608;1.458;2023-04-27T13:05:20;99657.19;;;23.04;100.00
49723;BME280;43484;43.608;1.458;2023-04-27T13:07:47;99648.44;;;23.05;100.00
49723;BME280;43484;43.608;1.458;2023-04-27T13:10:14;99655.13;;;23.16;100.00
49723;BME280;43484;43.608;1.458;2023-04-27T13:12:41;99657.41;;;23.31;100.00